createdAt,value
2022-11-06T00:01:28.789Z,12.40
2022-11-06T00:04:03.852Z,12.40
2022-11-06T00:06:48.193Z,12.40
2022-11-06T00:09:22.982Z,12.40
2022-11-06T00:11:58.023Z,12.40
2022-11-06T00:14:31.609Z,12.40
2022-11-06T00:17:04.974Z,12.40
2022-11-06T00:19:39.707Z,12.40
2022-11-06T00:22:13.324Z,12.40
2022-11-06T00:24:46.672Z,12.40
2022-11-06T00:27:20.285Z,12.40
2022-11-06T00:29:53.916Z,12.60
2022-11-06T00:32:27.512Z,12.40
2022-11-06T00:35:02.886Z,12.40
2022-11-06T00:37:36.801Z,12.30
2022-11-06T00:40:15.120Z,12.40
2022-11-06T00:42:48.526Z,12.30
2022-11-06T00:45:21.982Z,12.30
2022-11-06T00:47:55.856Z,12.30
2022-11-06T00:50:31.260Z,12.30
2022-11-06T00:53:04.946Z,12.00
2022-11-06T00:55:38.324Z,12.30
2022-11-06T00:58:12.066Z,12.30
2022-11-06T01:00:45.589Z,12.20
2022-11-06T01:03:18.960Z,12.30
2022-11-06T01:05:55.120Z,12.20
2022-11-06T01:08:28.571Z,12.20
2022-11-06T01:11:09.482Z,12.20
2022-11-06T01:13:43.924Z,12.10
2022-11-06T01:16:17.699Z,12.20
2022-11-06T01:18:52.223Z,12.10
2022-11-06T01:21:30.065Z,12.20
2022-11-06T01:24:07.555Z,12.10
2022-11-06T01:26:58.822Z,12.10
2022-11-06T01:29:37.375Z,12.10
2022-11-06T01:32:11.502Z,12.30
2022-11-06T01:34:46.931Z,12.10
2022-11-06T01:37:22.110Z,12.10
2022-11-06T01:39:56.488Z,12.10
2022-11-06T01:42:29.975Z,12.10
2022-11-06T01:45:40.851Z,12.00
2022-11-06T01:48:17.040Z,12.00
2022-11-06T01:50:56.448Z,12.10
2022-11-06T01:53:31.996Z,12.00
2022-11-06T01:56:10.493Z,12.00
2022-11-06T01:58:48.679Z,12.00
2022-11-06T02:01:22.371Z,12.00
2022-11-06T02:04:04.609Z,12.00
2022-11-06T02:06:39.710Z,12.00
2022-11-06T02:09:15.377Z,12.00
2022-11-06T02:11:58.066Z,12.10
2022-11-06T02:14:43.074Z,12.00
2022-11-06T02:17:29.373Z,12.00
2022-11-06T02:20:11.591Z,12.00
2022-11-06T02:23:30.909Z,11.90
2022-11-06T02:26:26.209Z,11.90
2022-11-06T02:29:08.630Z,12.10
2022-11-06T02:31:46.667Z,11.90
2022-11-06T02:34:25.626Z,11.90
2022-11-06T02:37:06.352Z,11.90
2022-11-06T02:39:44.012Z,12.10
2022-11-06T02:42:22.488Z,12.00
2022-11-06T02:44:59.130Z,11.90
2022-11-06T02:47:35.555Z,11.90
2022-11-06T02:50:13.737Z,11.90
2022-11-06T02:52:55.224Z,11.90
2022-11-06T02:55:35.204Z,11.90
2022-11-06T02:58:15.213Z,12.10
2022-11-06T03:00:57.386Z,12.10
2022-11-06T03:03:35.938Z,11.90
2022-11-06T03:06:18.476Z,11.90
2022-11-06T03:08:58.597Z,11.90
2022-11-06T03:11:39.135Z,11.90
2022-11-06T03:14:19.861Z,11.90
2022-11-06T03:17:11.527Z,11.90
2022-11-06T03:19:51.853Z,11.90
2022-11-06T03:22:34.330Z,11.90
2022-11-06T03:25:19.997Z,11.90
2022-11-06T03:28:05.922Z,11.80
2022-11-06T03:30:47.183Z,11.80
2022-11-06T03:33:34.752Z,11.80
2022-11-06T03:36:16.053Z,11.80
2022-11-06T03:38:55.739Z,11.90
2022-11-06T03:41:38.755Z,12.00
2022-11-06T03:44:18.938Z,11.80
2022-11-06T03:47:03.909Z,11.80
2022-11-06T03:49:47.406Z,11.80
2022-11-06T03:52:29.462Z,11.80
2022-11-06T03:55:09.003Z,12.00
2022-11-06T03:57:49.686Z,11.80
2022-11-06T04:00:24.813Z,11.80
2022-11-06T04:03:05.820Z,11.80
2022-11-06T04:05:49.263Z,12.00
2022-11-06T04:08:43.447Z,11.80
2022-11-06T04:11:41.176Z,11.80
2022-11-06T04:14:17.806Z,11.90
2022-11-06T04:16:57.896Z,11.80
2022-11-06T04:19:31.254Z,11.80
2022-11-06T04:22:35.399Z,11.80
2022-11-06T04:25:48.235Z,11.80
2022-11-06T04:28:35.013Z,11.80
2022-11-06T04:31:17.683Z,11.80
2022-11-06T04:33:59.969Z,11.80
2022-11-06T04:36:45.232Z,11.70
2022-11-06T04:39:31.685Z,11.70
2022-11-06T04:42:18.452Z,11.80
2022-11-06T04:45:02.624Z,11.80
2022-11-06T04:47:39.980Z,11.70
2022-11-06T04:50:16.774Z,11.70
2022-11-06T04:52:51.336Z,11.80
2022-11-06T04:55:27.372Z,11.70
2022-11-06T04:58:00.891Z,11.70
2022-11-06T05:00:35.078Z,11.70
2022-11-06T05:03:09.338Z,11.70
2022-11-06T05:05:43.485Z,11.70
2022-11-06T05:08:18.916Z,11.70
2022-11-06T05:10:53.695Z,11.80
2022-11-06T05:13:27.111Z,11.70
2022-11-06T05:16:01.664Z,11.70
2022-11-06T05:18:36.236Z,11.70
2022-11-06T05:21:27.245Z,11.70
2022-11-06T05:24:00.613Z,11.70
2022-11-06T05:26:36.164Z,11.70
2022-11-06T05:29:10.319Z,11.70
2022-11-06T05:31:44.968Z,12.00
2022-11-06T05:34:18.310Z,11.80
2022-11-06T05:36:51.684Z,11.80
2022-11-06T05:39:25.959Z,11.80
2022-11-06T05:42:00.692Z,11.80
2022-11-06T05:44:34.388Z,12.00
2022-11-06T05:47:07.711Z,11.80
2022-11-06T05:49:42.612Z,11.80
2022-11-06T05:52:15.988Z,11.80
2022-11-06T05:54:49.299Z,11.80
2022-11-06T05:57:24.511Z,11.80
2022-11-06T05:59:58.125Z,11.90
2022-11-06T06:02:31.909Z,11.80
2022-11-06T06:05:07.125Z,11.80
2022-11-06T06:07:40.627Z,11.80
2022-11-06T06:10:14.098Z,11.80
2022-11-06T06:12:51.017Z,11.70
2022-11-06T06:15:24.351Z,11.70
2022-11-06T06:17:59.912Z,11.70
2022-11-06T06:20:33.769Z,11.80
2022-11-06T06:23:09.632Z,12.00
2022-11-06T06:25:44.526Z,11.70
2022-11-06T06:28:19.776Z,11.70
2022-11-06T06:30:58.595Z,11.70
2022-11-06T06:33:36.397Z,11.70
2022-11-06T06:36:10.892Z,11.70
2022-11-06T06:38:44.244Z,11.70
2022-11-06T06:41:17.709Z,11.70
2022-11-06T06:43:52.705Z,11.70
2022-11-06T06:46:26.510Z,11.60
2022-11-06T06:49:00.088Z,11.60
2022-11-06T06:51:34.565Z,11.80
2022-11-06T06:54:08.292Z,11.60
2022-11-06T06:56:41.803Z,11.60
2022-11-06T06:59:16.804Z,11.70
2022-11-06T07:01:50.297Z,11.60
2022-11-06T07:04:23.892Z,11.70
2022-11-06T07:06:57.710Z,11.70
2022-11-06T07:09:32.818Z,11.70
2022-11-06T07:12:06.723Z,11.70
2022-11-06T07:14:41.867Z,11.70
2022-11-06T07:17:15.208Z,11.70
2022-11-06T07:19:48.565Z,11.70
2022-11-06T07:22:29.682Z,11.70
2022-11-06T07:25:09.951Z,11.70
2022-11-06T07:27:43.341Z,11.70
2022-11-06T07:30:18.754Z,11.70
2022-11-06T07:32:52.315Z,11.80
2022-11-06T07:35:25.935Z,11.80
2022-11-06T07:38:00.097Z,11.80
2022-11-06T07:40:34.201Z,11.80
2022-11-06T07:43:09.763Z,11.90
2022-11-06T07:45:45.706Z,11.90
2022-11-06T07:48:19.543Z,11.90
2022-11-06T07:50:52.901Z,12.00
2022-11-06T07:53:27.323Z,12.00
2022-11-06T07:56:01.480Z,12.00
2022-11-06T07:58:35.585Z,12.10
2022-11-06T08:01:18.940Z,12.10
2022-11-06T08:03:52.680Z,12.10
2022-11-06T08:06:26.059Z,12.20
2022-11-06T08:09:00.005Z,12.30
2022-11-06T08:11:33.456Z,12.30
2022-11-06T08:14:07.019Z,12.30
2022-11-06T08:16:41.886Z,12.40
2022-11-06T08:19:15.344Z,12.40
2022-11-06T08:21:49.400Z,12.50
2022-11-06T08:24:23.101Z,12.50
2022-11-06T08:26:57.610Z,12.60
2022-11-06T08:29:31.097Z,12.70
2022-11-06T08:32:06.501Z,12.70
2022-11-06T08:34:39.916Z,12.70
2022-11-06T08:37:13.356Z,12.80
2022-11-06T08:39:46.880Z,12.80
2022-11-06T08:42:20.272Z,12.90
2022-11-06T08:44:53.733Z,12.90
2022-11-06T08:47:30.179Z,13.00
2022-11-06T08:50:04.179Z,13.00
2022-11-06T08:52:37.762Z,13.00
2022-11-06T08:55:11.535Z,13.10
2022-11-06T08:57:45.093Z,13.10
2022-11-06T09:00:19.283Z,13.20
2022-11-06T09:03:00.357Z,12.90
2022-11-06T09:05:34.447Z,13.30
2022-11-06T09:08:07.861Z,13.30
2022-11-06T09:10:44.022Z,13.40
2022-11-06T09:13:17.632Z,13.40
2022-11-06T09:15:53.971Z,13.50
2022-11-06T09:18:29.347Z,13.60
2022-11-06T09:21:05.653Z,13.70
2022-11-06T09:23:39.431Z,13.80
2022-11-06T09:26:12.944Z,13.80
2022-11-06T09:28:48.012Z,13.90
2022-11-06T09:31:22.023Z,13.90
2022-11-06T09:33:57.061Z,14.00
2022-11-06T09:36:30.503Z,14.00
2022-11-06T09:39:04.083Z,14.00
2022-11-06T09:41:57.848Z,14.00
2022-11-06T09:44:52.944Z,14.10
2022-11-06T09:47:33.032Z,14.10
2022-11-06T09:50:18.206Z,14.10
2022-11-06T09:53:04.655Z,14.20
2022-11-06T09:55:44.532Z,14.20
2022-11-06T09:58:24.480Z,14.30
2022-11-06T10:01:03.580Z,14.30
2022-11-06T10:03:46.644Z,14.40
2022-11-06T10:06:24.162Z,14.40
2022-11-06T10:09:02.470Z,14.50
2022-11-06T10:11:56.195Z,14.50
2022-11-06T10:14:51.393Z,14.60
2022-11-06T10:17:46.675Z,14.70
2022-11-06T10:20:27.460Z,14.80
2022-11-06T10:23:18.074Z,14.80
2022-11-06T10:26:08.053Z,14.90
2022-11-06T10:29:16.930Z,15.00
2022-11-06T10:32:13.942Z,15.00
2022-11-06T10:34:53.899Z,15.10
2022-11-06T10:37:31.583Z,15.10
2022-11-06T10:40:18.267Z,15.20
2022-11-06T10:43:03.074Z,15.20
2022-11-06T10:45:42.546Z,15.20
2022-11-06T10:48:30.500Z,15.20
2022-11-06T10:51:25.565Z,15.30
2022-11-06T10:54:19.398Z,15.30
2022-11-06T10:57:11.412Z,15.30
2022-11-06T10:59:45.121Z,15.40
2022-11-06T11:02:29.392Z,15.40
2022-11-06T11:05:11.547Z,15.40
2022-11-06T11:07:48.558Z,15.40
2022-11-06T11:10:33.434Z,15.40
2022-11-06T11:13:22.356Z,15.40
2022-11-06T11:15:55.947Z,15.50
2022-11-06T11:18:32.661Z,15.50
2022-11-06T11:21:21.139Z,15.60
2022-11-06T11:24:09.303Z,15.70
2022-11-06T11:26:49.051Z,15.70
2022-11-06T11:29:30.722Z,15.70
2022-11-06T11:32:08.832Z,15.80
2022-11-06T11:34:53.925Z,15.70
2022-11-06T11:37:32.230Z,15.70
2022-11-06T11:40:35.947Z,15.70
2022-11-06T11:43:28.630Z,15.60
2022-11-06T11:46:21.461Z,15.60
2022-11-06T11:49:00.281Z,15.60
2022-11-06T11:51:47.832Z,15.60
2022-11-06T11:54:26.270Z,15.60
2022-11-06T11:57:07.315Z,15.60
2022-11-06T11:59:47.930Z,15.60
2022-11-06T12:02:29.526Z,15.60
2022-11-06T12:05:12.235Z,15.50
2022-11-06T12:07:50.989Z,15.50
2022-11-06T12:10:33.457Z,15.50
2022-11-06T12:13:17.507Z,15.50
2022-11-06T12:15:58.673Z,15.50
2022-11-06T12:18:38.341Z,15.50
2022-11-06T12:21:22.749Z,15.50
2022-11-06T12:24:03.086Z,15.50
2022-11-06T12:26:45.762Z,15.60
2022-11-06T12:29:24.800Z,15.60
2022-11-06T12:32:08.845Z,15.60
2022-11-06T12:34:53.565Z,15.60
2022-11-06T12:37:42.041Z,15.70
2022-11-06T12:40:25.356Z,15.60
2022-11-06T12:43:17.533Z,15.60
2022-11-06T12:46:08.364Z,15.60
2022-11-06T12:49:49.747Z,15.60
2022-11-06T12:52:43.429Z,15.80
2022-11-06T12:55:28.052Z,15.60
2022-11-06T12:58:36.445Z,15.50
2022-11-06T13:01:21.690Z,15.50
2022-11-06T13:04:22.267Z,15.50
2022-11-06T13:07:36.021Z,15.50
2022-11-06T13:10:38.057Z,15.50
2022-11-06T13:13:41.651Z,15.40
2022-11-06T13:16:30.902Z,15.40
2022-11-06T13:19:16.820Z,15.40
2022-11-06T13:22:09.153Z,15.40
2022-11-06T13:24:51.719Z,15.40
2022-11-06T13:27:36.573Z,15.30
2022-11-06T13:30:18.152Z,15.30
2022-11-06T13:33:04.000Z,15.40
2022-11-06T13:35:41.964Z,15.30
2022-11-06T13:38:21.957Z,15.30
2022-11-06T13:41:04.018Z,15.30
2022-11-06T13:43:43.985Z,15.30
2022-11-06T13:46:31.553Z,15.40
2022-11-06T13:49:18.675Z,15.30
2022-11-06T13:51:57.583Z,15.40
2022-11-06T13:55:06.411Z,15.30
2022-11-06T13:58:19.683Z,15.30
2022-11-06T14:01:07.557Z,15.30
2022-11-06T14:04:16.440Z,15.30
2022-11-06T14:06:54.878Z,15.40
2022-11-06T14:09:32.979Z,15.30
2022-11-06T14:12:15.308Z,15.20
2022-11-06T14:14:53.088Z,15.20
2022-11-06T14:17:27.267Z,15.20
2022-11-06T14:20:08.864Z,15.20
2022-11-06T14:22:42.633Z,15.20
2022-11-06T14:25:58.276Z,15.20
2022-11-06T14:28:34.556Z,15.20
2022-11-06T14:31:13.112Z,15.20
2022-11-06T14:34:03.806Z,15.20
2022-11-06T14:36:38.481Z,15.20
2022-11-06T14:39:15.851Z,15.10
2022-11-06T14:42:00.370Z,15.10
2022-11-06T14:44:49.499Z,15.20
2022-11-06T14:47:51.408Z,15.10
2022-11-06T14:50:37.025Z,15.10
2022-11-06T14:53:29.799Z,15.10
2022-11-06T14:56:09.072Z,15.10
2022-11-06T14:58:51.261Z,15.20
2022-11-06T15:01:31.201Z,15.10
2022-11-06T15:04:16.285Z,15.10
2022-11-06T15:06:52.075Z,15.10
2022-11-06T15:09:47.767Z,15.10
2022-11-06T15:13:07.120Z,15.10
2022-11-06T15:15:44.560Z,15.00
2022-11-06T15:18:23.085Z,15.00
2022-11-06T15:21:03.092Z,15.00
2022-11-06T15:23:46.815Z,15.00
2022-11-06T15:26:28.367Z,15.00
2022-11-06T15:29:21.418Z,15.00
2022-11-06T15:32:03.854Z,15.00
2022-11-06T15:34:42.075Z,15.00
2022-11-06T15:37:23.090Z,15.00
2022-11-06T15:40:01.207Z,14.90
2022-11-06T15:42:38.078Z,14.90
2022-11-06T15:45:23.215Z,14.90
2022-11-06T15:48:02.386Z,14.90
2022-11-06T15:50:37.418Z,14.90
2022-11-06T15:53:22.269Z,14.90
2022-11-06T15:56:01.464Z,14.80
2022-11-06T15:58:37.210Z,14.80
2022-11-06T16:01:13.076Z,14.80
2022-11-06T16:03:52.642Z,14.80
2022-11-06T16:06:26.896Z,14.70
2022-11-06T16:09:05.158Z,14.70
2022-11-06T16:11:39.980Z,14.70
2022-11-06T16:14:15.793Z,14.60
2022-11-06T16:16:51.903Z,14.60
2022-11-06T16:19:33.767Z,14.50
2022-11-06T16:22:12.125Z,14.40
2022-11-06T16:24:52.921Z,14.40
2022-11-06T16:27:28.455Z,14.30
2022-11-06T16:30:04.263Z,14.30
2022-11-06T16:32:42.167Z,14.20
2022-11-06T16:35:36.531Z,14.10
2022-11-06T16:38:42.038Z,14.00
2022-11-06T16:41:32.678Z,14.10
2022-11-06T16:44:31.324Z,13.90
2022-11-06T16:47:23.631Z,13.80
2022-11-06T16:49:58.744Z,13.70
2022-11-06T16:52:35.693Z,13.70
2022-11-06T16:55:28.464Z,13.60
2022-11-06T16:58:04.628Z,13.60
2022-11-06T17:00:38.370Z,13.50
2022-11-06T17:03:24.003Z,13.50
2022-11-06T17:05:59.782Z,13.40
2022-11-06T17:08:38.506Z,13.40
2022-11-06T17:11:21.937Z,13.30
2022-11-06T17:14:01.472Z,13.30
2022-11-06T17:16:49.522Z,13.30
2022-11-06T17:19:23.542Z,13.20
2022-11-06T17:21:58.178Z,13.20
2022-11-06T17:24:36.564Z,13.20
2022-11-06T17:27:10.848Z,13.10
2022-11-06T17:29:45.954Z,13.10
2022-11-06T17:32:19.608Z,13.10
2022-11-06T17:34:53.165Z,13.10
2022-11-06T17:37:27.402Z,13.10
2022-11-06T17:40:00.791Z,13.00
2022-11-06T17:42:34.814Z,13.00
2022-11-06T17:45:11.178Z,13.00
2022-11-06T17:47:44.824Z,13.00
2022-11-06T17:50:19.529Z,13.00
2022-11-06T17:52:53.369Z,13.00
2022-11-06T17:55:26.856Z,13.00
2022-11-06T17:58:00.255Z,13.00
2022-11-06T18:00:35.635Z,13.00
2022-11-06T18:03:09.475Z,12.90
2022-11-06T18:05:43.824Z,12.90
2022-11-06T18:08:17.691Z,12.90
2022-11-06T18:10:56.479Z,12.90
2022-11-06T18:13:31.481Z,12.90
2022-11-06T18:16:16.111Z,13.00
2022-11-06T18:18:49.957Z,12.90
2022-11-06T18:21:24.322Z,12.90
2022-11-06T18:23:57.808Z,12.90
2022-11-06T18:26:33.140Z,12.90
2022-11-06T18:29:08.772Z,12.90
2022-11-06T18:31:44.341Z,12.90
2022-11-06T18:34:21.461Z,12.80
2022-11-06T18:36:54.982Z,12.90
2022-11-06T18:39:36.546Z,12.80
2022-11-06T18:42:09.899Z,12.80
2022-11-06T18:44:43.269Z,12.80
2022-11-06T18:47:18.250Z,12.80
2022-11-06T18:49:51.705Z,13.10
2022-11-06T18:52:51.485Z,12.80
2022-11-06T18:55:18.657Z,12.80
2022-11-06T18:57:54.879Z,12.80
2022-11-06T19:00:31.354Z,12.80
2022-11-06T19:03:06.789Z,12.80
2022-11-06T19:05:46.940Z,12.80
2022-11-06T19:08:20.690Z,12.80
2022-11-06T19:10:58.495Z,12.90
2022-11-06T19:13:32.205Z,12.90
2022-11-06T19:16:07.716Z,12.90
2022-11-06T19:18:43.961Z,12.90
2022-11-06T19:21:18.029Z,12.90
2022-11-06T19:23:52.313Z,12.90
2022-11-06T19:26:31.140Z,12.90
2022-11-06T19:29:09.211Z,12.90
2022-11-06T19:31:44.205Z,12.90
2022-11-06T19:34:20.350Z,12.90
2022-11-06T19:36:54.387Z,13.00
2022-11-06T19:39:28.145Z,13.00
2022-11-06T19:42:01.592Z,13.00
2022-11-06T19:44:34.875Z,13.00
2022-11-06T19:47:14.867Z,13.00
2022-11-06T19:49:49.933Z,13.00
2022-11-06T19:52:43.238Z,13.00
2022-11-06T19:55:26.371Z,13.00
2022-11-06T19:58:00.990Z,13.10
2022-11-06T20:00:35.879Z,13.10
